Ronald Reagan Washington National Airport

KDCA | DCA

Washington , Virginia , United States

Sunday, January 26th, 2020 | 18:36

Weather

KDCA 262252Z 30008KT 10SM OVC065 08/M02 A2989 RMK AO2 SLP121 T00781017 $

Charts

47 Available

Gates

79 Available

Runways

3 Available

Events

No events for this airport


New event